Forside
METAR-TAF:

METAR-TAF

Lufthavne :

Tokushima, Japan

Breddekreds: 34-08N, længdekreds: 134-37E, højde: 8 m

Aktuelle vejr

Denne rapport blev lavet for 1 time og 19 minutter siden, kl. 17:00 UTC
Vind 6 kt fra vestnordvest
Temperatur 5°C
Fugtighed 65%
Tryk 1026 hPa
Sigt 10 km eller mere
Nogle få skyer i en højde af 3000 ft

METAR: RJOS 231700Z 30006KT 9999 FEW030 05/M01 Q1026

Tid: 03:19 (18:19 UTC)


TAF: fraværende

Vejrobservationer og prognoser fra mere end 4000 lufthavne (METAR og TAF).

De gule og røde prikker repræsenterer de meteorologiske stationer.

Flyt musen over at se navnet på stationen.

Så klik over at se vejr observationer og prognoser.

At skifte det kort: Klik på de grønne knapper med et sort kors for at zoome ind; på den grønne knap med en bindestreg for at zoome ud; eller på de grønne pile for tilstødende kort.


METAR-TAF: